sensor_id;sensor_type;location;lat;lon;timestamp;P1;durP1;ratioP1;P2;durP2;ratioP2
24421;SDS011;12600;53.326;-6.298;2023-05-07T00:01:04;18.63;;;6.75;;
24421;SDS011;12600;53.326;-6.298;2023-05-07T00:03:53;14.98;;;5.55;;
24421;SDS011;12600;53.326;-6.298;2023-05-07T00:06:43;16.42;;;5.70;;
24421;SDS011;12600;53.326;-6.298;2023-05-07T00:09:32;16.10;;;5.60;;
24421;SDS011;12600;53.326;-6.298;2023-05-07T00:12:23;15.95;;;5.22;;
24421;SDS011;12600;53.326;-6.298;2023-05-07T00:15:13;12.05;;;4.65;;
24421;SDS011;12600;53.326;-6.298;2023-05-07T00:18:02;16.42;;;4.68;;
24421;SDS011;12600;53.326;-6.298;2023-05-07T00:20:51;14.65;;;4.78;;
24421;SDS011;12600;53.326;-6.298;2023-05-07T00:23:41;16.02;;;4.80;;
24421;SDS011;12600;53.326;-6.298;2023-05-07T00:26:30;16.30;;;5.18;;
24421;SDS011;12600;53.326;-6.298;2023-05-07T00:29:21;13.85;;;4.65;;
24421;SDS011;12600;53.326;-6.298;2023-05-07T00:32:10;14.38;;;4.93;;
24421;SDS011;12600;53.326;-6.298;2023-05-07T00:35:00;19.80;;;5.07;;
24421;SDS011;12600;53.326;-6.298;2023-05-07T00:37:49;17.83;;;4.82;;
24421;SDS011;12600;53.326;-6.298;2023-05-07T00:40:38;17.45;;;5.70;;
24421;SDS011;12600;53.326;-6.298;2023-05-07T00:43:28;16.45;;;5.35;;
24421;SDS011;12600;53.326;-6.298;2023-05-07T00:46:19;19.08;;;5.30;;
24421;SDS011;12600;53.326;-6.298;2023-05-07T00:49:09;13.32;;;5.00;;
24421;SDS011;12600;53.326;-6.298;2023-05-07T00:51:59;18.23;;;4.30;;
24421;SDS011;12600;53.326;-6.298;2023-05-07T00:54:49;17.90;;;4.90;;
24421;SDS011;12600;53.326;-6.298;2023-05-07T00:57:39;14.13;;;4.10;;
24421;SDS011;12600;53.326;-6.298;2023-05-07T01:00:30;13.00;;;4.93;;
24421;SDS011;12600;53.326;-6.298;2023-05-07T01:03:20;12.32;;;4.32;;
24421;SDS011;12600;53.326;-6.298;2023-05-07T01:06:10;13.63;;;3.90;;
24421;SDS011;12600;53.326;-6.298;2023-05-07T01:09:04;12.23;;;4.13;;
24421;SDS011;12600;53.326;-6.298;2023-05-07T01:11:54;12.15;;;3.88;;
24421;SDS011;12600;53.326;-6.298;2023-05-07T01:14:45;12.48;;;3.95;;
24421;SDS011;12600;53.326;-6.298;2023-05-07T01:17:37;6.38;;;3.50;;
24421;SDS011;12600;53.326;-6.298;2023-05-07T01:20:34;13.65;;;3.80;;
24421;SDS011;12600;53.326;-6.298;2023-05-07T01:23:25;16.45;;;4.20;;
24421;SDS011;12600;53.326;-6.298;2023-05-07T01:26:16;13.82;;;3.97;;
24421;SDS011;12600;53.326;-6.298;2023-05-07T01:29:07;11.05;;;3.67;;
24421;SDS011;12600;53.326;-6.298;2023-05-07T01:31:56;9.80;;;3.45;;
24421;SDS011;12600;53.326;-6.298;2023-05-07T01:34:49;12.52;;;3.63;;
24421;SDS011;12600;53.326;-6.298;2023-05-07T01:37:40;13.45;;;3.78;;
24421;SDS011;12600;53.326;-6.298;2023-05-07T01:40:31;9.75;;;3.35;;
24421;SDS011;12600;53.326;-6.298;2023-05-07T01:43:21;8.68;;;3.00;;
24421;SDS011;12600;53.326;-6.298;2023-05-07T01:46:11;10.63;;;3.17;;
24421;SDS011;12600;53.326;-6.298;2023-05-07T01:49:01;7.57;;;3.00;;
24421;SDS011;12600;53.326;-6.298;2023-05-07T01:51:50;6.40;;;3.13;;
24421;SDS011;12600;53.326;-6.298;2023-05-07T01:54:40;11.00;;;3.08;;
24421;SDS011;12600;53.326;-6.298;2023-05-07T01:57:31;7.00;;;3.50;;
24421;SDS011;12600;53.326;-6.298;2023-05-07T02:00:20;10.52;;;3.58;;
24421;SDS011;12600;53.326;-6.298;2023-05-07T02:03:10;7.47;;;3.08;;
24421;SDS011;12600;53.326;-6.298;2023-05-07T02:06:08;7.95;;;2.92;;
24421;SDS011;12600;53.326;-6.298;2023-05-07T02:08:59;9.57;;;3.40;;
24421;SDS011;12600;53.326;-6.298;2023-05-07T02:11:48;7.10;;;3.03;;
24421;SDS011;12600;53.326;-6.298;2023-05-07T02:14:41;9.95;;;3.53;;
24421;SDS011;12600;53.326;-6.298;2023-05-07T02:17:31;8.75;;;2.92;;
24421;SDS011;12600;53.326;-6.298;2023-05-07T02:20:21;8.93;;;3.63;;
24421;SDS011;12600;53.326;-6.298;2023-05-07T02:23:10;7.53;;;3.53;;
24421;SDS011;12600;53.326;-6.298;2023-05-07T02:25:59;13.10;;;4.00;;
24421;SDS011;12600;53.326;-6.298;2023-05-07T02:28:49;14.98;;;4.57;;
24421;SDS011;12600;53.326;-6.298;2023-05-07T02:31:40;21.92;;;8.02;;
24421;SDS011;12600;53.326;-6.298;2023-05-07T02:34:31;17.30;;;7.93;;
24421;SDS011;12600;53.326;-6.298;2023-05-07T02:37:20;10.82;;;4.07;;
24421;SDS011;12600;53.326;-6.298;2023-05-07T02:40:10;10.75;;;3.60;;
24421;SDS011;12600;53.326;-6.298;2023-05-07T02:43:00;12.73;;;3.53;;
24421;SDS011;12600;53.326;-6.298;2023-05-07T02:45:50;12.75;;;3.53;;
24421;SDS011;12600;53.326;-6.298;2023-05-07T02:48:51;12.35;;;3.80;;
24421;SDS011;12600;53.326;-6.298;2023-05-07T02:51:41;12.13;;;4.00;;
24421;SDS011;12600;53.326;-6.298;2023-05-07T02:54:36;11.57;;;3.60;;
24421;SDS011;12600;53.326;-6.298;2023-05-07T02:57:26;10.85;;;3.70;;
24421;SDS011;12600;53.326;-6.298;2023-05-07T03:00:16;11.32;;;3.70;;
24421;SDS011;12600;53.326;-6.298;2023-05-07T03:03:20;13.07;;;3.80;;
24421;SDS011;12600;53.326;-6.298;2023-05-07T03:06:11;7.22;;;3.22;;
24421;SDS011;12600;53.326;-6.298;2023-05-07T03:09:00;13.07;;;3.90;;
24421;SDS011;12600;53.326;-6.298;2023-05-07T03:11:50;11.30;;;4.10;;
24421;SDS011;12600;53.326;-6.298;2023-05-07T03:14:40;10.20;;;3.92;;
24421;SDS011;12600;53.326;-6.298;2023-05-07T03:17:29;11.27;;;3.90;;
24421;SDS011;12600;53.326;-6.298;2023-05-07T03:20:18;12.90;;;3.72;;
24421;SDS011;12600;53.326;-6.298;2023-05-07T03:23:09;11.73;;;3.83;;
24421;SDS011;12600;53.326;-6.298;2023-05-07T03:25:58;14.50;;;3.90;;
24421;SDS011;12600;53.326;-6.298;2023-05-07T03:28:48;9.52;;;3.60;;
24421;SDS011;12600;53.326;-6.298;2023-05-07T03:31:37;9.27;;;3.38;;
24421;SDS011;12600;53.326;-6.298;2023-05-07T03:34:27;10.68;;;4.05;;
24421;SDS011;12600;53.326;-6.298;2023-05-07T03:37:16;16.33;;;6.78;;
24421;SDS011;12600;53.326;-6.298;2023-05-07T03:40:08;10.25;;;3.97;;
24421;SDS011;12600;53.326;-6.298;2023-05-07T03:43:09;7.82;;;3.55;;
24421;SDS011;12600;53.326;-6.298;2023-05-07T03:46:03;9.98;;;3.80;;
24421;SDS011;12600;53.326;-6.298;2023-05-07T03:48:53;13.07;;;3.90;;
24421;SDS011;12600;53.326;-6.298;2023-05-07T03:51:43;9.02;;;3.85;;
24421;SDS011;12600;53.326;-6.298;2023-05-07T03:54:33;12.13;;;3.40;;
24421;SDS011;12600;53.326;-6.298;2023-05-07T03:57:23;7.45;;;3.38;;
24421;SDS011;12600;53.326;-6.298;2023-05-07T04:00:13;10.15;;;3.42;;
24421;SDS011;12600;53.326;-6.298;2023-05-07T04:03:09;9.13;;;3.15;;
24421;SDS011;12600;53.326;-6.298;2023-05-07T04:05:58;8.95;;;3.20;;
24421;SDS011;12600;53.326;-6.298;2023-05-07T04:08:48;7.80;;;2.92;;
24421;SDS011;12600;53.326;-6.298;2023-05-07T04:11:37;6.30;;;2.67;;
24421;SDS011;12600;53.326;-6.298;2023-05-07T04:14:31;6.40;;;2.65;;
24421;SDS011;12600;53.326;-6.298;2023-05-07T04:17:21;5.38;;;2.28;;
24421;SDS011;12600;53.326;-6.298;2023-05-07T04:20:13;7.40;;;2.40;;
24421;SDS011;12600;53.326;-6.298;2023-05-07T04:23:09;5.63;;;2.38;;
24421;SDS011;12600;53.326;-6.298;2023-05-07T04:25:59;4.78;;;2.25;;
24421;SDS011;12600;53.326;-6.298;2023-05-07T04:28:54;7.80;;;2.25;;
24421;SDS011;12600;53.326;-6.298;2023-05-07T04:31:47;5.25;;;2.30;;
24421;SDS011;12600;53.326;-6.298;2023-05-07T04:34:37;6.00;;;2.40;;
24421;SDS011;12600;53.326;-6.298;2023-05-07T04:37:27;6.85;;;2.63;;
24421;SDS011;12600;53.326;-6.298;2023-05-07T04:40:16;6.55;;;2.45;;
24421;SDS011;12600;53.326;-6.298;2023-05-07T04:43:06;6.82;;;2.22;;
24421;SDS011;12600;53.326;-6.298;2023-05-07T04:46:03;6.65;;;2.55;;
24421;SDS011;12600;53.326;-6.298;2023-05-07T04:48:54;4.15;;;1.92;;
24421;SDS011;12600;53.326;-6.298;2023-05-07T04:51:44;5.07;;;2.17;;
24421;SDS011;12600;53.326;-6.298;2023-05-07T04:54:39;5.90;;;2.08;;
24421;SDS011;12600;53.326;-6.298;2023-05-07T04:57:28;5.65;;;2.20;;
24421;SDS011;12600;53.326;-6.298;2023-05-07T05:00:18;4.28;;;2.20;;
24421;SDS011;12600;53.326;-6.298;2023-05-07T05:03:09;5.32;;;2.03;;
24421;SDS011;12600;53.326;-6.298;2023-05-07T05:06:01;5.93;;;2.72;;
24421;SDS011;12600;53.326;-6.298;2023-05-07T05:08:53;9.70;;;4.05;;
24421;SDS011;12600;53.326;-6.298;2023-05-07T05:11:44;14.40;;;4.80;;
24421;SDS011;12600;53.326;-6.298;2023-05-07T05:14:34;15.02;;;5.65;;
24421;SDS011;12600;53.326;-6.298;2023-05-07T05:17:24;14.05;;;5.22;;
24421;SDS011;12600;53.326;-6.298;2023-05-07T05:20:14;12.82;;;5.00;;
24421;SDS011;12600;53.326;-6.298;2023-05-07T05:23:05;10.07;;;4.13;;
24421;SDS011;12600;53.326;-6.298;2023-05-07T05:25:56;13.23;;;5.05;;
24421;SDS011;12600;53.326;-6.298;2023-05-07T05:28:49;12.93;;;5.32;;
24421;SDS011;12600;53.326;-6.298;2023-05-07T05:31:41;12.48;;;4.45;;
24421;SDS011;12600;53.326;-6.298;2023-05-07T05:34:30;7.47;;;3.92;;
24421;SDS011;12600;53.326;-6.298;2023-05-07T05:37:21;10.20;;;4.22;;
24421;SDS011;12600;53.326;-6.298;2023-05-07T05:40:12;11.40;;;3.40;;
24421;SDS011;12600;53.326;-6.298;2023-05-07T05:43:02;9.63;;;3.40;;
24421;SDS011;12600;53.326;-6.298;2023-05-07T05:45:52;7.10;;;3.05;;
24421;SDS011;12600;53.326;-6.298;2023-05-07T05:48:43;6.68;;;3.08;;
24421;SDS011;12600;53.326;-6.298;2023-05-07T05:51:33;7.35;;;3.10;;
24421;SDS011;12600;53.326;-6.298;2023-05-07T05:54:23;9.27;;;2.83;;
24421;SDS011;12600;53.326;-6.298;2023-05-07T05:57:13;8.27;;;2.78;;
24421;SDS011;12600;53.326;-6.298;2023-05-07T06:00:04;5.63;;;2.33;;
24421;SDS011;12600;53.326;-6.298;2023-05-07T06:03:04;5.10;;;2.45;;
24421;SDS011;12600;53.326;-6.298;2023-05-07T06:05:55;7.55;;;2.75;;
24421;SDS011;12600;53.326;-6.298;2023-05-07T06:08:45;6.03;;;2.50;;
24421;SDS011;12600;53.326;-6.298;2023-05-07T06:11:40;6.30;;;2.58;;
24421;SDS011;12600;53.326;-6.298;2023-05-07T06:14:32;5.30;;;2.35;;
24421;SDS011;12600;53.326;-6.298;2023-05-07T06:17:21;4.18;;;2.10;;
24421;SDS011;12600;53.326;-6.298;2023-05-07T06:20:11;4.65;;;2.00;;
24421;SDS011;12600;53.326;-6.298;2023-05-07T06:23:01;4.18;;;2.08;;
24421;SDS011;12600;53.326;-6.298;2023-05-07T06:25:52;4.00;;;2.15;;
24421;SDS011;12600;53.326;-6.298;2023-05-07T06:28:48;5.68;;;2.35;;
24421;SDS011;12600;53.326;-6.298;2023-05-07T06:31:40;6.97;;;2.00;;
24421;SDS011;12600;53.326;-6.298;2023-05-07T06:34:30;4.57;;;1.90;;
24421;SDS011;12600;53.326;-6.298;2023-05-07T06:37:20;5.15;;;2.17;;
24421;SDS011;12600;53.326;-6.298;2023-05-07T06:40:17;6.07;;;2.35;;
24421;SDS011;12600;53.326;-6.298;2023-05-07T06:43:07;6.13;;;2.40;;
24421;SDS011;12600;53.326;-6.298;2023-05-07T06:46:15;8.90;;;2.70;;
24421;SDS011;12600;53.326;-6.298;2023-05-07T06:49:07;7.85;;;3.08;;
24421;SDS011;12600;53.326;-6.298;2023-05-07T06:51:57;6.78;;;3.03;;
24421;SDS011;12600;53.326;-6.298;2023-05-07T06:54:46;8.60;;;3.05;;
24421;SDS011;12600;53.326;-6.298;2023-05-07T06:57:38;7.10;;;2.78;;
24421;SDS011;12600;53.326;-6.298;2023-05-07T07:00:27;6.20;;;2.28;;
24421;SDS011;12600;53.326;-6.298;2023-05-07T07:03:16;10.10;;;3.03;;
24421;SDS011;12600;53.326;-6.298;2023-05-07T07:06:07;9.40;;;2.78;;
24421;SDS011;12600;53.326;-6.298;2023-05-07T07:08:57;8.07;;;3.03;;
24421;SDS011;12600;53.326;-6.298;2023-05-07T07:11:46;7.82;;;3.08;;
24421;SDS011;12600;53.326;-6.298;2023-05-07T07:14:36;5.13;;;2.55;;
24421;SDS011;12600;53.326;-6.298;2023-05-07T07:17:26;5.93;;;2.90;;
24421;SDS011;12600;53.326;-6.298;2023-05-07T07:20:16;7.15;;;3.10;;
24421;SDS011;12600;53.326;-6.298;2023-05-07T07:23:07;7.10;;;2.90;;
24421;SDS011;12600;53.326;-6.298;2023-05-07T07:25:57;6.57;;;2.75;;
24421;SDS011;12600;53.326;-6.298;2023-05-07T07:28:47;6.47;;;2.80;;
24421;SDS011;12600;53.326;-6.298;2023-05-07T07:31:39;8.60;;;2.90;;
24421;SDS011;12600;53.326;-6.298;2023-05-07T07:34:30;11.50;;;3.30;;
24421;SDS011;12600;53.326;-6.298;2023-05-07T07:37:21;7.20;;;2.67;;
24421;SDS011;12600;53.326;-6.298;2023-05-07T07:40:14;7.47;;;2.97;;
24421;SDS011;12600;53.326;-6.298;2023-05-07T07:43:05;8.43;;;2.70;;
24421;SDS011;12600;53.326;-6.298;2023-05-07T07:45:55;9.77;;;3.10;;
24421;SDS011;12600;53.326;-6.298;2023-05-07T07:48:44;9.32;;;2.88;;
24421;SDS011;12600;53.326;-6.298;2023-05-07T07:51:34;9.25;;;3.20;;
24421;SDS011;12600;53.326;-6.298;2023-05-07T07:54:24;7.13;;;2.88;;
24421;SDS011;12600;53.326;-6.298;2023-05-07T07:57:14;6.68;;;2.78;;
24421;SDS011;12600;53.326;-6.298;2023-05-07T08:00:04;6.88;;;2.88;;
24421;SDS011;12600;53.326;-6.298;2023-05-07T08:03:02;7.60;;;2.72;;
24421;SDS011;12600;53.326;-6.298;2023-05-07T08:05:57;5.88;;;2.25;;
24421;SDS011;12600;53.326;-6.298;2023-05-07T08:08:47;6.15;;;2.40;;
24421;SDS011;12600;53.326;-6.298;2023-05-07T08:11:37;7.72;;;2.50;;
24421;SDS011;12600;53.326;-6.298;2023-05-07T08:14:28;7.50;;;2.50;;
24421;SDS011;12600;53.326;-6.298;2023-05-07T08:17:17;8.63;;;2.67;;
24421;SDS011;12600;53.326;-6.298;2023-05-07T08:20:10;6.45;;;1.90;;
24421;SDS011;12600;53.326;-6.298;2023-05-07T08:23:00;5.82;;;2.17;;
24421;SDS011;12600;53.326;-6.298;2023-05-07T08:25:49;6.20;;;2.45;;
24421;SDS011;12600;53.326;-6.298;2023-05-07T08:28:40;7.03;;;2.42;;
24421;SDS011;12600;53.326;-6.298;2023-05-07T08:31:31;5.93;;;2.38;;
24421;SDS011;12600;53.326;-6.298;2023-05-07T08:34:21;5.90;;;2.10;;
24421;SDS011;12600;53.326;-6.298;2023-05-07T08:37:12;6.30;;;2.33;;
24421;SDS011;12600;53.326;-6.298;2023-05-07T08:40:02;5.65;;;2.17;;
24421;SDS011;12600;53.326;-6.298;2023-05-07T08:42:57;5.03;;;2.22;;
24421;SDS011;12600;53.326;-6.298;2023-05-07T08:45:49;6.22;;;2.20;;
24421;SDS011;12600;53.326;-6.298;2023-05-07T08:48:49;5.82;;;1.90;;
24421;SDS011;12600;53.326;-6.298;2023-05-07T08:51:39;6.97;;;2.60;;
24421;SDS011;12600;53.326;-6.298;2023-05-07T08:54:31;4.13;;;2.00;;
24421;SDS011;12600;53.326;-6.298;2023-05-07T08:57:21;5.22;;;2.10;;
24421;SDS011;12600;53.326;-6.298;2023-05-07T09:00:13;7.95;;;2.88;;
24421;SDS011;12600;53.326;-6.298;2023-05-07T09:03:06;7.28;;;2.88;;
24421;SDS011;12600;53.326;-6.298;2023-05-07T09:05:57;6.47;;;2.60;;
24421;SDS011;12600;53.326;-6.298;2023-05-07T09:11:39;8.85;;;2.78;;
24421;SDS011;12600;53.326;-6.298;2023-05-07T09:14:31;8.02;;;3.20;;
24421;SDS011;12600;53.326;-6.298;2023-05-07T09:17:22;9.57;;;3.35;;
24421;SDS011;12600;53.326;-6.298;2023-05-07T09:20:12;8.65;;;3.28;;
24421;SDS011;12600;53.326;-6.298;2023-05-07T09:23:03;7.38;;;3.58;;
24421;SDS011;12600;53.326;-6.298;2023-05-07T09:25:55;7.47;;;3.13;;
24421;SDS011;12600;53.326;-6.298;2023-05-07T09:28:52;8.73;;;3.28;;
24421;SDS011;12600;53.326;-6.298;2023-05-07T09:31:42;9.82;;;3.30;;
24421;SDS011;12600;53.326;-6.298;2023-05-07T09:34:35;6.30;;;3.25;;
24421;SDS011;12600;53.326;-6.298;2023-05-07T09:37:26;8.82;;;3.45;;
24421;SDS011;12600;53.326;-6.298;2023-05-07T09:40:24;6.50;;;2.60;;
24421;SDS011;12600;53.326;-6.298;2023-05-07T09:43:18;5.67;;;2.63;;
24421;SDS011;12600;53.326;-6.298;2023-05-07T09:46:14;8.85;;;3.20;;
24421;SDS011;12600;53.326;-6.298;2023-05-07T09:49:11;10.05;;;3.13;;
24421;SDS011;12600;53.326;-6.298;2023-05-07T09:52:17;5.55;;;2.35;;
24421;SDS011;12600;53.326;-6.298;2023-05-07T09:55:11;7.63;;;2.95;;
24421;SDS011;12600;53.326;-6.298;2023-05-07T09:58:03;6.45;;;2.72;;
24421;SDS011;12600;53.326;-6.298;2023-05-07T10:00:54;8.32;;;3.20;;
24421;SDS011;12600;53.326;-6.298;2023-05-07T10:03:46;7.13;;;2.92;;
24421;SDS011;12600;53.326;-6.298;2023-05-07T10:06:37;6.55;;;3.03;;
24421;SDS011;12600;53.326;-6.298;2023-05-07T10:09:27;10.13;;;3.50;;
24421;SDS011;12600;53.326;-6.298;2023-05-07T10:12:17;4.72;;;2.53;;
24421;SDS011;12600;53.326;-6.298;2023-05-07T10:15:10;4.68;;;2.85;;
24421;SDS011;12600;53.326;-6.298;2023-05-07T10:18:05;7.07;;;2.35;;
24421;SDS011;12600;53.326;-6.298;2023-05-07T10:20:57;4.65;;;2.05;;
24421;SDS011;12600;53.326;-6.298;2023-05-07T10:23:57;4.38;;;2.15;;
24421;SDS011;12600;53.326;-6.298;2023-05-07T10:26:52;5.38;;;2.60;;
24421;SDS011;12600;53.326;-6.298;2023-05-07T10:29:45;9.30;;;2.50;;
24421;SDS011;12600;53.326;-6.298;2023-05-07T10:32:51;6.75;;;2.30;;
24421;SDS011;12600;53.326;-6.298;2023-05-07T10:35:50;6.68;;;2.38;;
24421;SDS011;12600;53.326;-6.298;2023-05-07T10:38:43;4.53;;;2.30;;
24421;SDS011;12600;53.326;-6.298;2023-05-07T10:41:35;4.70;;;2.47;;
24421;SDS011;12600;53.326;-6.298;2023-05-07T10:44:25;9.75;;;2.40;;
24421;SDS011;12600;53.326;-6.298;2023-05-07T10:47:21;5.53;;;2.22;;
24421;SDS011;12600;53.326;-6.298;2023-05-07T10:50:22;9.68;;;2.60;;
24421;SDS011;12600;53.326;-6.298;2023-05-07T10:53:22;9.25;;;2.42;;
24421;SDS011;12600;53.326;-6.298;2023-05-07T10:56:26;6.70;;;2.58;;
24421;SDS011;12600;53.326;-6.298;2023-05-07T10:59:31;7.15;;;2.65;;
24421;SDS011;12600;53.326;-6.298;2023-05-07T11:06:11;7.00;;;2.80;;
24421;SDS011;12600;53.326;-6.298;2023-05-07T11:09:25;5.78;;;2.53;;
24421;SDS011;12600;53.326;-6.298;2023-05-07T11:13:10;7.05;;;3.15;;
24421;SDS011;12600;53.326;-6.298;2023-05-07T11:16:15;7.53;;;2.75;;
24421;SDS011;12600;53.326;-6.298;2023-05-07T11:19:09;7.35;;;3.03;;
24421;SDS011;12600;53.326;-6.298;2023-05-07T11:22:04;7.72;;;3.63;;
24421;SDS011;12600;53.326;-6.298;2023-05-07T11:25:24;6.03;;;3.00;;
24421;SDS011;12600;53.326;-6.298;2023-05-07T11:28:20;6.05;;;2.78;;
24421;SDS011;12600;53.326;-6.298;2023-05-07T11:31:21;8.93;;;3.58;;
24421;SDS011;12600;53.326;-6.298;2023-05-07T11:34:20;6.97;;;3.53;;
24421;SDS011;12600;53.326;-6.298;2023-05-07T11:37:17;6.25;;;3.00;;
24421;SDS011;12600;53.326;-6.298;2023-05-07T11:40:15;7.82;;;3.65;;
24421;SDS011;12600;53.326;-6.298;2023-05-07T11:43:10;6.95;;;3.50;;
24421;SDS011;12600;53.326;-6.298;2023-05-07T11:46:04;9.48;;;3.55;;
24421;SDS011;12600;53.326;-6.298;2023-05-07T11:48:56;8.23;;;3.28;;
24421;SDS011;12600;53.326;-6.298;2023-05-07T11:51:46;5.80;;;3.28;;
24421;SDS011;12600;53.326;-6.298;2023-05-07T11:54:37;10.68;;;3.33;;
24421;SDS011;12600;53.326;-6.298;2023-05-07T11:57:26;9.18;;;3.55;;
24421;SDS011;12600;53.326;-6.298;2023-05-07T12:00:16;7.47;;;3.17;;
24421;SDS011;12600;53.326;-6.298;2023-05-07T12:03:06;6.43;;;3.00;;
24421;SDS011;12600;53.326;-6.298;2023-05-07T12:05:55;5.45;;;2.90;;
24421;SDS011;12600;53.326;-6.298;2023-05-07T12:08:45;6.45;;;3.50;;
24421;SDS011;12600;53.326;-6.298;2023-05-07T12:11:37;8.10;;;3.17;;
24421;SDS011;12600;53.326;-6.298;2023-05-07T12:14:28;7.72;;;3.00;;
24421;SDS011;12600;53.326;-6.298;2023-05-07T12:17:17;5.07;;;2.83;;
24421;SDS011;12600;53.326;-6.298;2023-05-07T12:20:07;9.27;;;3.30;;
24421;SDS011;12600;53.326;-6.298;2023-05-07T12:22:57;5.82;;;2.47;;
24421;SDS011;12600;53.326;-6.298;2023-05-07T12:25:47;8.48;;;3.05;;
24421;SDS011;12600;53.326;-6.298;2023-05-07T12:28:38;3.67;;;1.70;;
24421;SDS011;12600;53.326;-6.298;2023-05-07T12:31:28;3.90;;;2.10;;
24421;SDS011;12600;53.326;-6.298;2023-05-07T12:34:17;4.90;;;1.92;;
24421;SDS011;12600;53.326;-6.298;2023-05-07T12:37:07;5.10;;;1.80;;
24421;SDS011;12600;53.326;-6.298;2023-05-07T12:40:03;5.25;;;1.98;;
24421;SDS011;12600;53.326;-6.298;2023-05-07T12:42:54;2.92;;;1.80;;
24421;SDS011;12600;53.326;-6.298;2023-05-07T12:45:48;3.80;;;2.10;;
24421;SDS011;12600;53.326;-6.298;2023-05-07T12:51:34;4.15;;;1.90;;
24421;SDS011;12600;53.326;-6.298;2023-05-07T12:54:27;5.70;;;1.77;;
24421;SDS011;12600;53.326;-6.298;2023-05-07T12:57:19;5.13;;;2.70;;
24421;SDS011;12600;53.326;-6.298;2023-05-07T13:00:09;3.33;;;2.40;;
24421;SDS011;12600;53.326;-6.298;2023-05-07T13:03:01;5.18;;;2.30;;
24421;SDS011;12600;53.326;-6.298;2023-05-07T13:05:51;3.40;;;2.67;;
24421;SDS011;12600;53.326;-6.298;2023-05-07T13:08:44;4.65;;;2.30;;
24421;SDS011;12600;53.326;-6.298;2023-05-07T13:11:34;5.10;;;2.35;;
24421;SDS011;12600;53.326;-6.298;2023-05-07T13:14:24;5.28;;;2.60;;
24421;SDS011;12600;53.326;-6.298;2023-05-07T13:17:13;3.97;;;2.50;;
24421;SDS011;12600;53.326;-6.298;2023-05-07T13:20:04;3.80;;;2.70;;
24421;SDS011;12600;53.326;-6.298;2023-05-07T13:25:44;4.20;;;2.38;;
24421;SDS011;12600;53.326;-6.298;2023-05-07T13:28:35;5.15;;;2.70;;
24421;SDS011;12600;53.326;-6.298;2023-05-07T13:31:24;5.75;;;2.90;;
24421;SDS011;12600;53.326;-6.298;2023-05-07T13:34:14;3.03;;;2.08;;
24421;SDS011;12600;53.326;-6.298;2023-05-07T13:37:04;3.95;;;2.05;;
24421;SDS011;12600;53.326;-6.298;2023-05-07T13:39:57;4.80;;;2.40;;
24421;SDS011;12600;53.326;-6.298;2023-05-07T13:42:46;4.40;;;2.50;;
24421;SDS011;12600;53.326;-6.298;2023-05-07T13:45:36;3.63;;;2.20;;
24421;SDS011;12600;53.326;-6.298;2023-05-07T13:48:25;3.60;;;2.28;;
24421;SDS011;12600;53.326;-6.298;2023-05-07T13:51:15;5.55;;;2.42;;
24421;SDS011;12600;53.326;-6.298;2023-05-07T13:54:06;3.85;;;2.47;;
24421;SDS011;12600;53.326;-6.298;2023-05-07T13:56:55;4.22;;;2.25;;
24421;SDS011;12600;53.326;-6.298;2023-05-07T13:59:45;4.72;;;2.63;;
24421;SDS011;12600;53.326;-6.298;2023-05-07T14:02:34;5.35;;;2.33;;
24421;SDS011;12600;53.326;-6.298;2023-05-07T14:05:24;5.93;;;2.40;;
24421;SDS011;12600;53.326;-6.298;2023-05-07T14:08:15;5.05;;;2.30;;
24421;SDS011;12600;53.326;-6.298;2023-05-07T14:11:08;6.10;;;2.25;;
24421;SDS011;12600;53.326;-6.298;2023-05-07T14:13:57;4.07;;;2.10;;
24421;SDS011;12600;53.326;-6.298;2023-05-07T14:16:46;4.10;;;2.33;;
24421;SDS011;12600;53.326;-6.298;2023-05-07T14:19:37;5.10;;;2.60;;
24421;SDS011;12600;53.326;-6.298;2023-05-07T14:22:26;3.42;;;2.30;;
24421;SDS011;12600;53.326;-6.298;2023-05-07T14:25:17;7.35;;;2.97;;
24421;SDS011;12600;53.326;-6.298;2023-05-07T14:28:37;4.07;;;2.40;;
24421;SDS011;12600;53.326;-6.298;2023-05-07T14:31:27;6.43;;;2.20;;
24421;SDS011;12600;53.326;-6.298;2023-05-07T14:34:16;4.00;;;1.95;;
24421;SDS011;12600;53.326;-6.298;2023-05-07T14:37:06;3.72;;;2.22;;
24421;SDS011;12600;53.326;-6.298;2023-05-07T14:39:55;4.07;;;2.10;;
24421;SDS011;12600;53.326;-6.298;2023-05-07T14:42:44;4.30;;;2.40;;
24421;SDS011;12600;53.326;-6.298;2023-05-07T14:45:35;3.72;;;2.00;;
24421;SDS011;12600;53.326;-6.298;2023-05-07T14:48:25;5.28;;;2.60;;
24421;SDS011;12600;53.326;-6.298;2023-05-07T14:51:14;3.33;;;2.20;;
24421;SDS011;12600;53.326;-6.298;2023-05-07T14:54:03;6.82;;;2.35;;
24421;SDS011;12600;53.326;-6.298;2023-05-07T14:56:53;6.55;;;2.53;;
24421;SDS011;12600;53.326;-6.298;2023-05-07T14:59:43;3.65;;;2.58;;
24421;SDS011;12600;53.326;-6.298;2023-05-07T15:02:35;6.32;;;2.45;;
24421;SDS011;12600;53.326;-6.298;2023-05-07T15:05:25;6.25;;;3.30;;
24421;SDS011;12600;53.326;-6.298;2023-05-07T15:08:14;4.72;;;2.28;;
24421;SDS011;12600;53.326;-6.298;2023-05-07T15:11:04;4.13;;;2.40;;
24421;SDS011;12600;53.326;-6.298;2023-05-07T15:13:53;7.30;;;2.25;;
24421;SDS011;12600;53.326;-6.298;2023-05-07T15:16:42;4.05;;;2.08;;
24421;SDS011;12600;53.326;-6.298;2023-05-07T15:19:34;4.65;;;2.03;;
24421;SDS011;12600;53.326;-6.298;2023-05-07T15:22:23;4.20;;;1.90;;
24421;SDS011;12600;53.326;-6.298;2023-05-07T15:25:13;5.25;;;2.03;;
24421;SDS011;12600;53.326;-6.298;2023-05-07T15:28:03;8.75;;;3.10;;
24421;SDS011;12600;53.326;-6.298;2023-05-07T15:30:53;6.43;;;2.40;;
24421;SDS011;12600;53.326;-6.298;2023-05-07T15:33:43;4.90;;;1.98;;
24421;SDS011;12600;53.326;-6.298;2023-05-07T15:36:35;6.45;;;2.28;;
24421;SDS011;12600;53.326;-6.298;2023-05-07T15:39:25;4.68;;;2.53;;
24421;SDS011;12600;53.326;-6.298;2023-05-07T15:42:14;4.45;;;2.20;;
24421;SDS011;12600;53.326;-6.298;2023-05-07T15:45:04;6.80;;;2.80;;
24421;SDS011;12600;53.326;-6.298;2023-05-07T15:47:55;5.60;;;2.10;;
24421;SDS011;12600;53.326;-6.298;2023-05-07T15:50:45;7.78;;;2.70;;
24421;SDS011;12600;53.326;-6.298;2023-05-07T15:53:36;7.45;;;2.58;;
24421;SDS011;12600;53.326;-6.298;2023-05-07T15:56:26;5.22;;;2.17;;
24421;SDS011;12600;53.326;-6.298;2023-05-07T15:59:15;8.18;;;2.65;;
24421;SDS011;12600;53.326;-6.298;2023-05-07T16:02:05;7.75;;;2.85;;
24421;SDS011;12600;53.326;-6.298;2023-05-07T16:04:55;6.90;;;3.03;;
24421;SDS011;12600;53.326;-6.298;2023-05-07T16:07:44;7.55;;;2.67;;
24421;SDS011;12600;53.326;-6.298;2023-05-07T16:10:36;9.10;;;3.38;;
24421;SDS011;12600;53.326;-6.298;2023-05-07T16:13:25;6.45;;;2.40;;
24421;SDS011;12600;53.326;-6.298;2023-05-07T16:16:14;5.53;;;2.40;;
24421;SDS011;12600;53.326;-6.298;2023-05-07T16:19:04;8.40;;;2.63;;
24421;SDS011;12600;53.326;-6.298;2023-05-07T16:21:53;9.00;;;2.20;;
24421;SDS011;12600;53.326;-6.298;2023-05-07T16:24:43;7.30;;;1.92;;
24421;SDS011;12600;53.326;-6.298;2023-05-07T16:27:34;8.82;;;2.08;;
24421;SDS011;12600;53.326;-6.298;2023-05-07T16:30:23;7.13;;;2.65;;
24421;SDS011;12600;53.326;-6.298;2023-05-07T16:33:12;8.73;;;2.88;;
24421;SDS011;12600;53.326;-6.298;2023-05-07T16:36:02;8.00;;;3.10;;
24421;SDS011;12600;53.326;-6.298;2023-05-07T16:38:52;13.45;;;7.13;;
24421;SDS011;12600;53.326;-6.298;2023-05-07T16:41:41;9.15;;;2.85;;
24421;SDS011;12600;53.326;-6.298;2023-05-07T16:44:32;6.50;;;2.60;;
24421;SDS011;12600;53.326;-6.298;2023-05-07T16:47:22;7.22;;;2.58;;
24421;SDS011;12600;53.326;-6.298;2023-05-07T16:50:11;9.27;;;2.58;;
24421;SDS011;12600;53.326;-6.298;2023-05-07T16:53:01;10.77;;;1.95;;
24421;SDS011;12600;53.326;-6.298;2023-05-07T16:55:52;5.43;;;2.25;;
24421;SDS011;12600;53.326;-6.298;2023-05-07T16:58:42;5.65;;;2.10;;
24421;SDS011;12600;53.326;-6.298;2023-05-07T17:01:33;10.40;;;2.10;;
24421;SDS011;12600;53.326;-6.298;2023-05-07T17:04:23;4.95;;;1.88;;
24421;SDS011;12600;53.326;-6.298;2023-05-07T17:07:12;6.55;;;2.20;;